Time;durP1;ratioP1;P1;durP2;ratioP2;P2;SDS_P1;SDS_P2;PMS_P1;PMS_P2;Temp;Humidity;BMP_temperature;BMP_pressure;BME280_temperature;BME280_humidity;BME280_pressure;Samples;Min_cycle;Max_cycle;Signal;HPM_P1;HPM_P2
2023/05/16 00:01:36;;;;;;;10.50;7.10;;;;;;;9.55;96.23;99821.21;105784;1253;83091;-49
2023/05/16 00:04:05;;;;;;;12.30;7.00;;;;;;;9.57;96.45;99822.16;105697;1251;72755;-49
2023/05/16 00:06:34;;;;;;;7.80;6.70;;;;;;;9.63;96.84;99822.26;105744;1253;69888;-45
2023/05/16 00:09:03;;;;;;;9.60;7.00;;;;;;;9.74;97.06;99827.39;105919;1253;69932;-46
2023/05/16 00:15:33;;;;;;;8.40;7.50;;;;;;;10.02;97.42;99831.75;105766;1254;83336;-48
2023/05/16 00:18:01;;;;;;;8.60;7.30;;;;;;;10.11;97.34;99829.80;105928;1253;73775;-49
2023/05/16 00:20:30;;;;;;;9.40;8.20;;;;;;;10.19;97.18;99831.72;105751;1250;70013;-48
2023/05/16 00:23:00;;;;;;;10.30;7.70;;;;;;;10.26;97.04;99835.95;105766;1251;69881;-48
2023/05/16 00:25:28;;;;;;;14.30;7.60;;;;;;;10.32;96.97;99832.39;105813;1250;74841;-47
2023/05/16 00:27:56;;;;;;;11.10;7.50;;;;;;;10.37;96.89;99831.30;105844;1254;83264;-46
2023/05/16 00:30:25;;;;;;;10.50;7.90;;;;;;;10.39;96.59;99828.05;105788;1251;73469;-46
2023/05/16 00:32:54;;;;;;;8.90;7.50;;;;;;;10.42;96.58;99827.20;105787;1253;70010;-46
2023/05/16 00:35:23;;;;;;;9.30;6.90;;;;;;;10.48;96.53;99820.65;105705;1253;70008;-46
2023/05/16 00:37:51;;;;;;;8.40;6.90;;;;;;;10.54;96.70;99820.20;105798;1251;74712;-46
2023/05/16 00:40:21;;;;;;;9.00;7.20;;;;;;;10.57;96.39;99820.60;105797;1253;83684;-46
2023/05/16 00:42:50;;;;;;;9.50;7.10;;;;;;;10.60;96.29;99825.54;105859;1254;73134;-46
2023/05/16 00:45:18;;;;;;;9.00;6.90;;;;;;;10.64;96.22;99827.08;105795;1254;70005;-47
2023/05/16 00:47:46;;;;;;;9.70;6.30;;;;;;;10.69;96.11;99830.67;105816;1253;69912;-48
2023/05/16 00:50:15;;;;;;;8.00;6.40;;;;;;;10.74;96.02;99836.91;105824;1250;74929;-49
2023/05/16 00:52:44;;;;;;;9.30;7.00;;;;;;;10.80;95.88;99836.13;105847;1251;82939;-47
2023/05/16 00:55:12;;;;;;;8.20;6.70;;;;;;;10.84;95.97;99842.21;105819;1251;72787;-49
2023/05/16 00:57:41;;;;;;;6.90;6.20;;;;;;;10.90;95.89;99844.36;105826;1251;70287;-47
2023/05/16 01:00:09;;;;;;;8.30;6.80;;;;;;;10.97;95.73;99848.08;105811;1253;69983;-47
2023/05/16 01:02:38;;;;;;;9.50;6.30;;;;;;;11.03;95.61;99844.85;105805;1250;74865;-46
2023/05/16 01:05:08;;;;;;;7.30;6.30;;;;;;;11.08;95.39;99851.73;105794;1251;83447;-47
2023/05/16 01:07:36;;;;;;;7.20;5.80;;;;;;;11.12;94.99;99853.32;105818;1251;73760;-47
2023/05/16 01:10:08;;;;;;;7.40;6.00;;;;;;;11.14;94.83;99853.91;105617;1250;69973;-47
2023/05/16 01:12:48;;;;;;;6.80;6.00;;;;;;;11.17;94.64;99853.59;105773;1253;69873;-48
2023/05/16 01:15:28;;;;;;;8.60;5.50;;;;;;;11.20;94.53;99857.66;105782;1253;75178;-47
2023/05/16 01:18:06;;;;;;;6.30;5.60;;;;;;;11.23;94.37;99856.45;105631;1251;83816;-48
2023/05/16 01:20:59;;;;;;;7.70;6.10;;;;;;;11.23;94.08;99860.29;105726;1253;72706;-48
2023/05/16 01:24:00;;;;;;;7.90;6.00;;;;;;;11.21;93.68;99862.84;105640;1256;69924;-47
2023/05/16 01:26:29;;;;;;;7.40;5.80;;;;;;;11.18;93.69;99867.02;105686;1250;70004;-48
2023/05/16 01:28:57;;;;;;;7.10;6.40;;;;;;;11.16;93.65;99870.39;105712;1256;74396;-47
2023/05/16 01:31:26;;;;;;;7.20;6.20;;;;;;;11.14;93.67;99873.84;105669;1251;81934;-48
2023/05/16 01:33:54;;;;;;;7.10;6.40;;;;;;;11.10;93.35;99874.02;105833;1251;73484;-47
2023/05/16 01:36:37;;;;;;;8.30;6.10;;;;;;;11.07;93.30;99875.21;105749;1251;69973;-47
2023/05/16 01:39:18;;;;;;;8.60;6.70;;;;;;;11.04;93.33;99880.10;105691;1251;69941;-48
2023/05/16 01:41:55;;;;;;;6.90;5.60;;;;;;;11.01;93.29;99883.17;105807;1253;73842;-47
2023/05/16 01:44:49;;;;;;;8.70;5.60;;;;;;;10.99;93.32;99892.72;105787;1254;82536;-47
2023/05/16 01:47:19;;;;;;;7.80;5.50;;;;;;;10.98;93.33;99902.93;105590;1256;74038;-48
2023/05/16 01:50:09;;;;;;;6.30;5.30;;;;;;;10.99;93.30;99898.71;105795;1251;69996;-48
2023/05/16 01:52:49;;;;;;;10.90;5.10;;;;;;;10.99;93.39;99904.44;105659;1251;69934;-46
2023/05/16 01:55:23;;;;;;;;;;;;;;;10.98;93.34;99908.32;105784;1250;75038;-49
2023/05/16 01:57:51;;;;;;;9.00;6.50;;;;;;;10.98;93.36;99908.17;105750;1251;83309;-48
2023/05/16 02:00:20;;;;;;;7.70;6.10;;;;;;;10.92;92.80;99907.05;105664;1251;73778;-47
2023/05/16 02:02:48;;;;;;;7.90;6.50;;;;;;;10.82;92.28;99908.22;105803;1251;70053;-48
2023/05/16 02:05:17;;;;;;;10.00;6.80;;;;;;;10.67;91.53;99903.65;105769;1250;70029;-49
2023/05/16 02:07:45;;;;;;;8.60;6.80;;;;;;;10.47;91.15;99906.12;105785;1253;74585;-48
2023/05/16 02:10:13;;;;;;;10.60;7.10;;;;;;;10.29;91.01;99911.60;105728;1253;82509;-48
2023/05/16 02:12:41;;;;;;;9.50;7.20;;;;;;;10.10;91.07;99912.02;105716;1251;72768;-47
2023/05/16 02:15:10;;;;;;;9.20;7.10;;;;;;;9.96;91.29;99919.98;105697;1249;69814;-48
2023/05/16 02:17:39;;;;;;;10.20;7.90;;;;;;;9.85;91.62;99922.17;105703;1252;70072;-48
2023/05/16 02:20:09;;;;;;;9.10;7.50;;;;;;;9.75;92.03;99920.85;105811;1251;74994;-48
2023/05/16 02:22:41;;;;;;;10.80;7.60;;;;;;;9.66;92.46;99923.84;105664;1251;83147;-48
2023/05/16 02:25:10;;;;;;;8.00;7.10;;;;;;;9.59;92.67;99930.56;105659;1250;74118;-48
2023/05/16 02:27:38;;;;;;;10.60;7.40;;;;;;;9.52;92.61;99936.45;105759;1251;69967;-49
2023/05/16 02:30:09;;;;;;;9.10;7.40;;;;;;;9.41;92.36;99940.20;105788;1253;69931;-48
2023/05/16 02:32:38;;;;;;;11.30;7.30;;;;;;;9.30;92.36;99942.55;105781;1253;74023;-47
2023/05/16 02:35:08;;;;;;;9.40;7.30;;;;;;;9.23;92.68;99945.80;105779;1253;82610;-47
2023/05/16 02:37:37;;;;;;;11.60;7.30;;;;;;;9.18;92.77;99948.23;105657;1250;73273;-48
2023/05/16 02:40:06;;;;;;;11.20;7.10;;;;;;;9.09;92.61;99951.73;105783;1251;70147;-48
2023/05/16 02:42:36;;;;;;;9.30;6.90;;;;;;;8.98;92.62;99949.53;105744;1253;69906;-47
2023/05/16 02:45:05;;;;;;;9.00;7.20;;;;;;;8.88;92.67;99949.19;105751;1251;74712;-48
2023/05/16 02:47:33;;;;;;;7.90;7.20;;;;;;;8.79;92.69;99954.06;105802;1251;82907;-47
2023/05/16 02:50:02;;;;;;;9.60;6.70;;;;;;;8.72;92.80;99954.52;105637;1251;73041;-47
2023/05/16 02:52:30;;;;;;;10.10;7.50;;;;;;;8.63;92.65;99955.88;105802;1251;69932;-47
2023/05/16 02:54:59;;;;;;;9.50;6.70;;;;;;;8.53;92.48;99957.09;105730;1251;70007;-48
2023/05/16 02:57:47;;;;;;;7.90;6.70;;;;;;;8.46;92.85;99957.87;105607;1256;74514;-48
2023/05/16 03:00:17;;;;;;;8.10;6.70;;;;;;;8.43;93.31;99954.49;105801;1251;82596;-48
2023/05/16 03:02:45;;;;;;;7.40;6.70;;;;;;;8.38;93.50;99961.27;105785;1251;72759;-48
2023/05/16 03:05:14;;;;;;;8.40;7.50;;;;;;;8.34;93.58;99960.18;105811;1251;69893;-47
2023/05/16 03:07:42;;;;;;;9.80;6.80;;;;;;;8.30;93.51;99963.98;105824;1250;69990;-48
2023/05/16 03:10:10;;;;;;;7.20;6.50;;;;;;;8.24;93.48;99968.00;105727;1250;74897;-47
2023/05/16 03:12:39;;;;;;;8.20;7.00;;;;;;;8.20;93.87;99972.49;105785;1251;83296;-47
2023/05/16 03:15:08;;;;;;;8.20;6.60;;;;;;;8.16;93.69;99976.64;105814;1250;73517;-47
2023/05/16 03:17:36;;;;;;;8.70;6.90;;;;;;;8.12;93.83;99986.52;105780;1251;70001;-48
2023/05/16 03:20:07;;;;;;;8.40;7.50;;;;;;;8.11;94.52;99991.23;105832;1253;69957;-48
2023/05/16 03:22:36;;;;;;;8.10;6.80;;;;;;;8.13;94.61;99993.27;105740;1253;74831;-48
2023/05/16 03:25:04;;;;;;;7.40;6.60;;;;;;;8.13;94.99;99996.38;105721;1251;83507;-48
2023/05/16 03:27:33;;;;;;;8.30;6.90;;;;;;;8.15;94.85;99998.77;105773;1250;73699;-49
2023/05/16 03:30:01;;;;;;;8.00;6.70;;;;;;;8.14;94.99;100003.50;105801;1249;70002;-48
2023/05/16 03:32:29;;;;;;;10.70;6.80;;;;;;;8.13;95.19;100003.71;105664;1254;70036;-48
2023/05/16 03:34:58;;;;;;;7.50;5.70;;;;;;;8.12;94.92;100003.75;105794;1251;74828;-48
2023/05/16 03:37:26;;;;;;;7.40;5.90;;;;;;;8.10;95.09;100005.37;105849;1250;83332;-48
2023/05/16 03:39:55;;;;;;;7.20;6.20;;;;;;;8.09;94.74;100005.24;105628;1251;74045;-48
2023/05/16 03:42:23;;;;;;;7.30;6.40;;;;;;;8.08;95.15;100003.71;105798;1251;69919;-47
2023/05/16 03:44:51;;;;;;;9.00;7.00;;;;;;;8.07;95.10;100003.92;105761;1253;69984;-47
2023/05/16 03:47:20;;;;;;;8.00;7.20;;;;;;;8.12;96.00;100000.60;105788;1253;74642;-47
2023/05/16 03:49:48;;;;;;;10.00;7.80;;;;;;;8.27;97.16;99998.69;105787;1253;83487;-46
2023/05/16 03:52:16;;;;;;;9.90;8.30;;;;;;;8.42;97.56;99995.95;105805;1250;73702;-48
2023/05/16 03:54:45;;;;;;;7.70;6.40;;;;;;;8.52;97.78;99995.27;105782;1251;69969;-47
2023/05/16 03:57:13;;;;;;;15.70;8.00;;;;;;;8.53;96.81;100002.55;105779;1253;69903;-48
2023/05/16 03:59:42;;;;;;;9.10;6.80;;;;;;;8.53;96.60;100008.45;106187;1253;74000;-46
2023/05/16 04:02:10;;;;;;;7.90;7.10;;;;;;;8.55;96.77;100013.27;105740;1253;83118;-48
2023/05/16 04:04:38;;;;;;;8.20;6.90;;;;;;;8.61;97.15;100019.34;105802;1253;72772;-47
2023/05/16 04:07:06;;;;;;;8.00;7.20;;;;;;;8.68;97.36;100025.88;105722;1251;70004;-46
2023/05/16 04:09:35;;;;;;;8.30;6.80;;;;;;;8.72;97.47;100031.98;105780;1253;69959;-46
2023/05/16 04:12:03;;;;;;;8.60;7.20;;;;;;;8.81;97.70;100040.05;106095;1250;74851;-46
2023/05/16 04:14:33;;;;;;;9.00;7.40;;;;;;;8.89;97.98;100039.95;105905;1253;84360;-47
2023/05/16 04:17:02;;;;;;;10.70;7.30;;;;;;;8.98;98.11;100039.45;105791;1251;73601;-46
2023/05/16 04:19:30;;;;;;;9.70;7.00;;;;;;;9.05;98.25;100047.56;105692;1251;69867;-46
2023/05/16 04:21:58;;;;;;;8.40;7.00;;;;;;;9.11;98.47;100043.14;105830;1253;69990;-47
2023/05/16 04:24:27;;;;;;;10.10;7.60;;;;;;;9.18;98.45;100043.23;105765;1253;74809;-49
2023/05/16 04:26:56;;;;;;;7.80;6.70;;;;;;;9.25;98.28;100047.86;105903;1253;83225;-47
2023/05/16 04:29:24;;;;;;;8.20;6.70;;;;;;;9.31;98.26;100054.45;105744;1253;72063;-46
2023/05/16 04:31:53;;;;;;;8.70;7.50;;;;;;;9.37;98.30;100060.34;105848;1251;70066;-46
2023/05/16 04:34:22;;;;;;;8.20;7.00;;;;;;;9.45;98.65;100067.20;105762;1251;69986;-47
2023/05/16 04:36:50;;;;;;;10.10;7.50;;;;;;;9.54;98.77;100063.49;105906;1253;74919;-47
2023/05/16 04:39:19;;;;;;;8.10;7.20;;;;;;;9.66;98.90;100063.58;105879;1253;83437;-47
2023/05/16 04:41:47;;;;;;;8.30;7.10;;;;;;;9.79;99.13;100065.67;105705;1253;74182;-47
2023/05/16 04:44:15;;;;;;;9.60;7.40;;;;;;;9.94;99.09;100073.85;105724;1251;70012;-46
2023/05/16 04:46:43;;;;;;;8.40;7.00;;;;;;;10.06;99.15;100067.26;105884;1253;69967;-46
2023/05/16 04:49:12;;;;;;;10.70;7.80;;;;;;;10.18;99.09;100064.65;105877;1253;75256;-47
2023/05/16 04:51:40;;;;;;;11.80;7.80;;;;;;;10.31;99.07;100066.09;105790;1253;83252;-46
2023/05/16 04:54:09;;;;;;;10.10;7.50;;;;;;;10.43;99.02;100067.15;105805;1250;73519;-46
2023/05/16 04:56:37;;;;;;;8.80;7.40;;;;;;;10.58;99.04;100064.42;105898;1253;70036;-46
2023/05/16 04:59:06;;;;;;;10.40;7.80;;;;;;;10.73;99.33;100065.71;105827;1251;70795;-47
2023/05/16 05:01:34;;;;;;;9.10;7.30;;;;;;;10.90;99.28;100067.27;105982;1250;75095;-48
2023/05/16 05:04:02;;;;;;;8.60;7.50;;;;;;;11.09;99.33;100076.55;105965;1253;82404;-48
2023/05/16 05:06:31;;;;;;;9.60;7.30;;;;;;;11.29;99.37;100074.26;105816;1253;73145;-47
2023/05/16 05:08:59;;;;;;;8.90;7.90;;;;;;;11.48;99.08;100077.96;105850;1251;70017;-50
2023/05/16 05:11:27;;;;;;;7.70;6.90;;;;;;;11.64;98.82;100076.87;105970;1249;69983;-47
2023/05/16 05:13:56;;;;;;;8.70;7.80;;;;;;;11.77;98.77;100079.21;105932;1253;74434;-52
2023/05/16 05:16:24;;;;;;;9.00;6.90;;;;;;;11.90;98.33;100095.43;105787;1250;83070;-45
2023/05/16 05:18:52;;;;;;;10.50;7.20;;;;;;;12.00;98.00;100102.33;105644;1254;72547;-46
2023/05/16 05:21:22;;;;;;;11.50;7.50;;;;;;;12.10;97.81;100103.80;105793;1251;69886;-46
2023/05/16 05:23:51;;;;;;;9.30;7.10;;;;;;;12.18;97.38;100109.90;105961;1253;70104;-49
2023/05/16 05:26:21;;;;;;;8.30;6.70;;;;;;;12.24;97.06;100115.16;106197;1250;74781;-46
2023/05/16 05:28:49;;;;;;;10.40;7.40;;;;;;;12.33;96.92;100125.12;106024;1250;82453;-47
2023/05/16 05:31:32;;;;;;;8.30;6.30;;;;;;;12.41;96.73;100126.80;106164;1253;73561;-46
2023/05/16 05:34:02;;;;;;;7.80;6.90;;;;;;;12.50;96.55;100126.90;106070;1253;69988;-46
2023/05/16 05:36:30;;;;;;;7.20;6.30;;;;;;;12.57;96.41;100126.54;105679;1253;177858;-46
2023/05/16 05:38:58;;;;;;;7.70;6.90;;;;;;;12.63;96.18;100131.84;105796;1253;73386;-45
2023/05/16 05:41:26;;;;;;;9.00;6.80;;;;;;;12.69;95.92;100132.44;105797;1253;83192;-46
2023/05/16 05:43:55;;;;;;;8.20;7.30;;;;;;;12.73;95.69;100135.70;105763;1250;71779;-45
2023/05/16 05:46:24;;;;;;;7.10;6.40;;;;;;;12.77;95.60;100133.11;105746;1253;69918;-45
2023/05/16 05:48:52;;;;;;;10.80;7.50;;;;;;;12.79;95.40;100124.93;105877;1253;69976;-45
2023/05/16 05:51:21;;;;;;;8.30;7.40;;;;;;;12.81;95.34;100122.20;105752;1256;73856;-45
2023/05/16 05:53:49;;;;;;;10.20;7.30;;;;;;;12.84;95.00;100123.30;105887;1253;83175;-45
2023/05/16 05:56:17;;;;;;;10.30;7.30;;;;;;;12.83;94.83;100122.79;105951;1252;71763;-46
2023/05/16 05:58:46;;;;;;;12.10;7.60;;;;;;;12.82;94.56;100124.58;105943;1253;70664;-45
2023/05/16 06:01:14;;;;;;;10.90;8.20;;;;;;;12.81;94.39;100130.95;105717;1253;69976;-45
2023/05/16 06:03:42;;;;;;;8.80;7.90;;;;;;;12.80;94.23;100133.30;106016;1250;72333;-45
2023/05/16 06:06:11;;;;;;;8.30;7.40;;;;;;;12.81;94.28;100136.39;105843;1253;83206;-48
2023/05/16 06:08:39;;;;;;;10.20;7.90;;;;;;;12.82;94.34;100140.71;105756;1253;73384;-45
2023/05/16 06:11:08;;;;;;;10.50;7.40;;;;;;;12.86;94.29;100143.71;106080;1251;69877;-47
2023/05/16 06:13:36;;;;;;;11.10;8.90;;;;;;;12.89;94.26;100134.56;105884;1251;69912;-46
2023/05/16 06:16:04;;;;;;;10.40;7.60;;;;;;;12.90;94.05;100138.40;105948;1250;74527;-47
2023/05/16 06:18:35;;;;;;;10.40;7.60;;;;;;;12.89;94.09;100137.04;106117;1250;82336;-47
2023/05/16 06:21:05;;;;;;;10.10;7.60;;;;;;;12.90;94.07;100140.13;105740;1251;72747;-45
2023/05/16 06:23:34;;;;;;;8.70;7.70;;;;;;;12.95;94.23;100141.30;105949;1251;69983;-48
2023/05/16 06:26:03;;;;;;;8.60;7.40;;;;;;;13.01;94.37;100144.35;106510;1250;69957;-46
2023/05/16 06:28:31;;;;;;;9.80;8.10;;;;;;;13.07;94.39;100145.06;106001;1250;73740;-47
2023/05/16 06:30:59;;;;;;;8.10;7.30;;;;;;;13.14;94.63;100150.64;105675;1253;83183;-47
2023/05/16 06:33:28;;;;;;;9.40;7.30;;;;;;;13.21;94.26;100162.05;105751;1250;72818;-48
2023/05/16 06:35:56;;;;;;;8.30;7.30;;;;;;;13.30;94.26;100174.28;105775;1253;70015;-47
2023/05/16 06:38:24;;;;;;;8.50;7.70;;;;;;;13.37;94.09;100174.77;105765;1251;69894;-48
2023/05/16 06:40:52;;;;;;;9.50;8.50;;;;;;;13.46;93.76;100176.08;105700;1253;74963;-46
2023/05/16 06:43:21;;;;;;;9.90;8.80;;;;;;;13.49;93.34;100172.74;105723;1253;83107;-47
2023/05/16 06:45:49;;;;;;;11.50;8.60;;;;;;;13.52;93.37;100171.56;105706;1253;73679;-47
2023/05/16 06:48:18;;;;;;;10.60;8.80;;;;;;;13.58;93.55;100169.80;105786;1251;69989;-47
2023/05/16 06:50:48;;;;;;;10.30;8.70;;;;;;;13.65;93.25;100180.70;105810;1250;69916;-47
2023/05/16 06:53:17;;;;;;;10.20;9.10;;;;;;;13.65;92.89;100183.32;105779;1253;74104;-48
2023/05/16 06:55:46;;;;;;;12.10;9.10;;;;;;;13.69;92.98;100182.08;105806;1250;83437;-47
2023/05/16 06:58:14;;;;;;;9.60;8.60;;;;;;;13.73;92.50;100183.05;105820;1253;73079;-48
2023/05/16 07:00:43;;;;;;;9.70;8.70;;;;;;;13.77;92.41;100185.81;105783;1250;69864;-47
2023/05/16 07:03:12;;;;;;;9.10;8.20;;;;;;;13.84;92.54;100192.67;105777;1250;69877;-48
2023/05/16 07:05:40;;;;;;;9.60;8.60;;;;;;;13.91;92.31;100199.52;105789;1250;73961;-48
2023/05/16 07:08:11;;;;;;;10.70;8.50;;;;;;;13.97;92.22;100204.27;105806;1251;83808;-48
2023/05/16 07:10:39;;;;;;;;;;;;;;;14.08;92.05;100210.52;105715;1250;72653;-47
2023/05/16 07:13:07;;;;;;;13.70;8.50;;;;;;;14.17;91.82;100217.93;105723;1251;70060;-47
2023/05/16 07:15:36;;;;;;;11.70;9.20;;;;;;;14.23;91.39;100224.10;105771;1251;70268;-48
2023/05/16 07:18:04;;;;;;;11.70;9.60;;;;;;;14.28;91.11;100228.01;105688;1251;74591;-48
2023/05/16 07:20:32;;;;;;;11.20;9.30;;;;;;;14.37;91.37;100225.96;105669;1251;82373;-47
2023/05/16 07:23:00;;;;;;;10.40;9.30;;;;;;;14.41;90.97;100227.30;105797;1253;73471;-47
2023/05/16 07:25:29;;;;;;;10.60;8.30;;;;;;;14.49;90.64;100219.51;105785;1251;69983;-48
2023/05/16 07:27:58;;;;;;;11.60;9.00;;;;;;;14.64;90.50;100218.34;105669;1256;70390;-47
2023/05/16 07:30:27;;;;;;;10.30;8.50;;;;;;;14.75;90.25;100212.27;105808;1253;75425;-47
2023/05/16 07:32:55;;;;;;;9.90;8.90;;;;;;;14.85;89.96;100208.67;105792;1253;83024;-47
2023/05/16 07:35:23;;;;;;;10.60;9.30;;;;;;;14.94;89.71;100207.62;105822;1250;73660;-47
2023/05/16 07:37:52;;;;;;;10.10;9.10;;;;;;;15.03;89.37;100196.73;105761;1251;69884;-48
2023/05/16 07:40:24;;;;;;;10.70;9.50;;;;;;;15.14;89.37;100195.02;105726;1251;70040;-47
2023/05/16 07:42:52;;;;;;;12.10;10.90;;;;;;;15.32;89.62;100196.05;105829;1253;75370;-47
2023/05/16 07:45:21;;;;;;;13.10;11.10;;;;;;;15.44;89.03;100198.66;105736;1253;83151;-48
2023/05/16 07:47:49;;;;;;;12.40;11.20;;;;;;;15.53;88.72;100199.36;105794;1250;73378;-49
2023/05/16 07:50:18;;;;;;;11.50;10.30;;;;;;;15.63;88.20;100204.59;105761;1251;70001;-47
2023/05/16 07:52:46;;;;;;;12.50;11.10;;;;;;;15.69;87.84;100207.55;105757;1253;69992;-49
2023/05/16 07:55:15;;;;;;;12.60;11.40;;;;;;;15.75;87.26;100216.73;105815;1250;74575;-49
2023/05/16 07:57:43;;;;;;;13.50;11.90;;;;;;;15.79;87.22;100217.52;105773;1253;83093;-48
2023/05/16 08:00:13;;;;;;;14.10;12.30;;;;;;;15.91;87.26;100221.06;105778;1251;73657;-47
2023/05/16 08:02:41;;;;;;;14.10;12.70;;;;;;;15.91;86.41;100225.98;105774;1250;69983;-47
2023/05/16 08:05:10;;;;;;;14.60;12.70;;;;;;;15.89;86.36;100227.64;105798;1253;69972;-49
2023/05/16 08:07:40;;;;;;;14.50;13.10;;;;;;;15.95;86.17;100226.96;105787;1253;75190;-48
2023/05/16 08:10:09;;;;;;;12.60;11.40;;;;;;;16.03;86.14;100231.20;105704;1253;83469;-48
2023/05/16 08:12:40;;;;;;;13.80;11.30;;;;;;;16.04;85.73;100231.25;105703;1250;73583;-48
2023/05/16 08:15:09;;;;;;;13.10;11.80;;;;;;;16.06;85.54;100232.39;105795;1250;70013;-48
2023/05/16 08:17:38;;;;;;;14.00;12.60;;;;;;;16.06;85.07;100239.47;105845;1253;70273;-49
2023/05/16 08:20:07;;;;;;;13.60;12.30;;;;;;;15.99;84.84;100242.16;105703;1251;74104;-48
2023/05/16 08:22:35;;;;;;;14.50;12.90;;;;;;;15.97;84.93;100247.10;105787;1251;82643;-50
2023/05/16 08:25:04;;;;;;;15.60;14.00;;;;;;;15.87;84.47;100255.08;105738;1251;73870;-48
2023/05/16 08:27:33;;;;;;;14.80;13.40;;;;;;;15.77;84.57;100258.33;105810;1253;69912;-48
2023/05/16 08:30:01;;;;;;;16.40;12.60;;;;;;;15.76;84.69;100259.45;105815;1250;69921;-47
2023/05/16 08:32:30;;;;;;;14.70;12.10;;;;;;;15.77;84.41;100258.15;105799;1251;74833;-49
2023/05/16 08:34:59;;;;;;;12.10;11.00;;;;;;;15.80;84.00;100252.69;105793;1253;83389;-47
2023/05/16 08:37:27;;;;;;;13.20;11.80;;;;;;;15.80;83.92;100255.54;105794;1253;73842;-47
2023/05/16 08:39:56;;;;;;;18.30;13.10;;;;;;;15.70;83.65;100260.52;105748;1253;70332;-49
2023/05/16 08:42:24;;;;;;;15.10;13.30;;;;;;;15.64;83.94;100267.59;105743;1251;69918;-48
2023/05/16 08:44:52;;;;;;;15.70;13.90;;;;;;;15.60;84.03;100268.63;105774;1256;73872;-47
2023/05/16 08:47:24;;;;;;;14.40;13.00;;;;;;;15.57;84.00;100271.52;105764;1253;83379;-48
2023/05/16 08:49:54;;;;;;;14.50;12.90;;;;;;;15.54;84.09;100272.36;105786;1250;73928;-48
2023/05/16 08:52:27;;;;;;;12.60;11.40;;;;;;;15.50;84.14;100271.93;105789;1250;70197;-48
2023/05/16 08:54:57;;;;;;;12.80;11.50;;;;;;;15.41;84.08;100276.48;105742;1253;69924;-48
2023/05/16 08:57:38;;;;;;;12.60;11.10;;;;;;;15.31;83.74;100284.31;105777;1249;74686;-48
2023/05/16 09:00:10;;;;;;;13.00;11.50;;;;;;;15.20;83.45;100282.67;105788;1251;83408;-49
2023/05/16 09:02:41;;;;;;;13.70;11.60;;;;;;;15.12;83.48;100287.18;105792;1253;71996;-48
2023/05/16 09:05:11;;;;;;;14.80;13.30;;;;;;;15.10;83.82;100290.98;105775;1251;70566;-49
2023/05/16 09:07:40;;;;;;;16.70;13.30;;;;;;;15.15;83.77;100298.45;105784;1251;70019;-49
2023/05/16 09:10:10;;;;;;;14.60;12.90;;;;;;;15.20;83.75;100300.80;105753;1250;73793;-49
2023/05/16 09:12:40;;;;;;;15.80;12.40;;;;;;;15.27;83.94;100306.40;105795;1251;83364;-48
2023/05/16 09:15:10;;;;;;;13.10;11.60;;;;;;;15.31;84.05;100313.89;105645;1249;72513;-47
2023/05/16 09:17:45;;;;;;;14.40;12.80;;;;;;;15.35;83.97;100316.80;105717;1250;70498;-48
2023/05/16 09:20:17;;;;;;;12.70;11.40;;;;;;;15.36;83.50;100322.02;105752;1250;69891;-47
2023/05/16 09:22:54;;;;;;;14.90;11.60;;;;;;;15.35;83.57;100321.02;105720;1251;74675;-47
2023/05/16 09:25:24;;;;;;;13.90;12.40;;;;;;;15.40;83.50;100315.86;105777;1253;83378;-47
2023/05/16 09:27:57;;;;;;;16.20;14.40;;;;;;;15.44;83.14;100312.79;105254;1259;73585;-49
2023/05/16 09:30:33;;;;;;;16.00;13.80;;;;;;;15.45;82.82;100312.71;105279;1256;69891;-48
2023/05/16 09:33:02;;;;;;;18.50;14.70;;;;;;;15.51;82.87;100309.38;105221;1255;70034;-47
2023/05/16 09:35:30;;;;;;;16.00;14.40;;;;;;;15.55;82.81;100312.27;105188;1259;74615;-48
2023/05/16 09:38:02;;;;;;;17.30;14.90;;;;;;;15.59;82.49;100311.16;104936;1263;83324;-51
2023/05/16 09:40:31;;;;;;;18.90;14.50;;;;;;;15.58;82.25;100307.91;104941;1265;72897;-49
2023/05/16 09:43:04;;;;;;;17.30;14.80;;;;;;;15.57;82.14;100306.19;104972;1263;70035;-50
2023/05/16 09:45:35;;;;;;;16.40;14.70;;;;;;;15.62;82.24;100305.00;105118;1264;69945;-49
2023/05/16 09:48:05;;;;;;;14.60;12.80;;;;;;;15.59;81.70;100302.89;105284;1256;73863;-48
2023/05/16 09:50:35;;;;;;;14.90;13.40;;;;;;;15.50;81.50;100310.67;105333;1256;82425;-48
2023/05/16 09:53:04;;;;;;;15.20;13.60;;;;;;;15.41;81.63;100318.92;105276;1256;72790;-49
2023/05/16 09:55:33;;;;;;;16.10;14.40;;;;;;;15.34;81.63;100326.56;105336;1259;70654;-50
2023/05/16 09:58:02;;;;;;;17.30;15.60;;;;;;;15.25;81.51;100330.45;105760;1250;69897;-49
2023/05/16 10:00:31;;;;;;;19.20;16.50;;;;;;;15.16;81.51;100343.61;105715;1250;74839;-48
2023/05/16 10:03:02;;;;;;;17.10;15.10;;;;;;;15.12;81.72;100352.97;105781;1254;83354;-48
2023/05/16 10:05:34;;;;;;;20.10;16.30;;;;;;;15.14;82.03;100359.20;105704;1250;73630;-48
2023/05/16 10:08:04;;;;;;;16.70;14.80;;;;;;;15.15;81.93;100369.16;105611;1254;69934;-48
2023/05/16 10:10:35;;;;;;;17.30;14.20;;;;;;;15.12;81.81;100371.31;105676;1255;70153;-48
2023/05/16 10:13:05;;;;;;;15.60;13.70;;;;;;;15.04;81.62;100376.14;105723;1255;74030;-48
2023/05/16 10:15:35;;;;;;;18.80;13.90;;;;;;;14.94;81.55;100380.91;105572;1256;81619;-49
2023/05/16 10:18:10;;;;;;;15.30;13.40;;;;;;;14.86;81.60;100386.80;105549;1251;73924;-50
2023/05/16 10:20:41;;;;;;;17.50;14.50;;;;;;;14.83;81.80;100387.70;105721;1250;70090;-47
2023/05/16 10:23:14;;;;;;;17.50;14.30;;;;;;;14.82;82.32;100387.73;105789;1250;70012;-48
2023/05/16 10:25:43;;;;;;;20.10;15.20;;;;;;;14.87;82.32;100391.52;105695;1251;73760;-50
2023/05/16 10:28:13;;;;;;;21.80;16.50;;;;;;;14.89;82.38;100391.22;105628;1250;83843;-47
2023/05/16 10:30:44;;;;;;;20.60;16.40;;;;;;;14.90;82.71;100389.95;105664;1252;72860;-48
2023/05/16 10:33:14;;;;;;;18.40;16.50;;;;;;;14.87;82.30;100392.55;105697;1255;70017;-48
2023/05/16 10:35:43;;;;;;;18.80;16.50;;;;;;;14.82;82.38;100392.65;105681;1253;69986;-49
2023/05/16 10:38:13;;;;;;;19.50;16.80;;;;;;;14.77;82.32;100394.21;105744;1253;73839;-48
2023/05/16 10:40:42;;;;;;;18.50;16.00;;;;;;;14.70;82.12;100396.70;105837;1250;83622;-48
2023/05/16 10:43:22;;;;;;;18.50;14.10;;;;;;;14.63;82.32;100400.73;105779;1250;72695;-47
2023/05/16 10:46:01;;;;;;;16.70;12.90;;;;;;;14.63;82.56;100398.65;105769;1250;69990;-47
2023/05/16 10:48:34;;;;;;;17.30;14.70;;;;;;;14.62;82.72;100393.40;105682;1251;69916;-47
2023/05/16 10:51:32;;;;;;;18.50;14.20;;;;;;;14.68;82.99;100396.95;105716;1250;73851;-48
2023/05/16 10:54:09;;;;;;;16.10;14.30;;;;;;;14.82;83.09;100396.04;105785;1253;83645;-47
2023/05/16 10:56:37;;;;;;;18.80;15.40;;;;;;;14.93;83.01;100397.49;105800;1253;73921;-49
2023/05/16 10:59:23;;;;;;;18.60;15.60;;;;;;;15.00;82.93;100397.29;105776;1251;69986;-49
2023/05/16 11:01:54;;;;;;;17.90;15.50;;;;;;;15.05;82.78;100396.88;105803;1251;69973;-47
2023/05/16 11:04:22;;;;;;;20.90;17.30;;;;;;;15.05;82.55;100405.83;105745;1253;73648;-47
2023/05/16 11:06:52;;;;;;;19.40;17.30;;;;;;;15.01;82.34;100408.16;105719;1253;82077;-46
2023/05/16 11:09:22;;;;;;;22.80;18.80;;;;;;;14.98;82.18;100406.58;105701;1250;72937;-47
2023/05/16 11:11:50;;;;;;;23.50;18.00;;;;;;;14.92;82.07;100405.67;105733;1252;69905;-46
2023/05/16 11:14:20;;;;;;;21.30;17.30;;;;;;;14.89;82.20;100401.27;105751;1251;69926;-47
2023/05/16 11:17:12;;;;;;;23.40;17.30;;;;;;;14.85;81.98;100401.14;105720;1250;74146;-47
2023/05/16 11:19:43;;;;;;;23.00;16.70;;;;;;;14.74;81.85;100405.60;105775;1253;83198;-46
2023/05/16 11:22:32;;;;;;;21.50;16.30;;;;;;;14.62;81.71;100403.23;105701;1253;72785;-46
2023/05/16 11:25:03;;;;;;;26.00;17.50;;;;;;;14.50;82.06;100405.63;105765;1253;70031;-46
2023/05/16 11:27:32;;;;;;;23.40;16.80;;;;;;;14.44;82.17;100402.27;105761;1249;69999;-47
2023/05/16 11:30:03;;;;;;;24.40;16.90;;;;;;;14.39;82.35;100398.64;105759;1253;72908;-49
2023/05/16 11:32:36;;;;;;;21.30;17.00;;;;;;;14.35;82.56;100399.40;105696;1253;83466;-46